createdAt,value
2023-01-15T00:00:24.477Z,89.33
2023-01-15T00:02:54.905Z,89.47
2023-01-15T00:05:25.272Z,89.27
2023-01-15T00:07:55.562Z,89.39
2023-01-15T00:10:25.870Z,89.62
2023-01-15T00:12:56.212Z,89.59
2023-01-15T00:15:29.192Z,89.90
2023-01-15T00:17:59.507Z,90.08
2023-01-15T00:20:29.900Z,90.33
2023-01-15T00:23:00.240Z,90.67
2023-01-15T00:25:42.955Z,91.10
2023-01-15T00:28:16.612Z,91.10
2023-01-15T00:30:52.138Z,91.70
2023-01-15T00:33:22.459Z,91.39
2023-01-15T00:35:52.830Z,91.25
2023-01-15T00:38:23.195Z,91.39
2023-01-15T00:40:53.496Z,91.59
2023-01-15T00:43:24.138Z,91.92
2023-01-15T00:45:57.083Z,91.93
2023-01-15T00:48:27.444Z,91.99
2023-01-15T00:50:57.944Z,92.07
2023-01-15T00:53:28.470Z,91.93
2023-01-15T00:55:59.007Z,92.09
2023-01-15T00:58:32.125Z,91.67
2023-01-15T01:01:05.242Z,90.79
2023-01-15T01:03:35.686Z,90.58
2023-01-15T01:06:08.257Z,90.17
2023-01-15T01:08:38.657Z,90.41
2023-01-15T01:11:12.686Z,90.17
2023-01-15T01:13:43.176Z,90.21
2023-01-15T01:16:35.794Z,90.04
2023-01-15T01:19:09.362Z,90.04
2023-01-15T01:21:42.314Z,89.57
2023-01-15T01:24:15.183Z,89.46
2023-01-15T01:26:46.794Z,89.58
2023-01-15T01:29:19.425Z,89.49
2023-01-15T01:31:52.581Z,89.67
2023-01-15T01:34:22.941Z,89.45
2023-01-15T01:36:53.280Z,89.54
2023-01-15T01:39:23.811Z,89.38
2023-01-15T01:41:54.184Z,89.15
2023-01-15T01:45:07.954Z,88.81
2023-01-15T01:47:41.110Z,89.08
2023-01-15T01:50:15.507Z,88.58
2023-01-15T01:52:51.260Z,88.34
2023-01-15T01:55:26.195Z,87.85
2023-01-15T01:58:02.431Z,87.95
2023-01-15T02:00:34.544Z,88.16
2023-01-15T02:03:11.162Z,88.11
2023-01-15T02:05:45.480Z,87.82
2023-01-15T02:08:15.987Z,87.96
2023-01-15T02:10:46.718Z,87.86
2023-01-15T02:13:24.329Z,87.79
2023-01-15T02:16:05.187Z,87.33
2023-01-15T02:18:46.894Z,87.22
2023-01-15T02:21:27.839Z,87.09
2023-01-15T02:24:14.132Z,86.83
2023-01-15T02:27:17.752Z,86.52
2023-01-15T02:29:59.835Z,86.58
2023-01-15T02:32:41.833Z,86.01
2023-01-15T02:35:20.122Z,85.78
2023-01-15T02:37:57.255Z,85.70
2023-01-15T02:40:30.296Z,85.68
2023-01-15T02:43:03.667Z,85.59
2023-01-15T02:45:39.833Z,85.02
2023-01-15T02:48:18.155Z,85.28
2023-01-15T02:50:55.590Z,85.20
2023-01-15T02:53:31.214Z,85.11
2023-01-15T02:56:10.910Z,85.25
2023-01-15T02:58:57.348Z,84.89
2023-01-15T03:01:33.272Z,84.13
2023-01-15T03:04:10.009Z,84.34
2023-01-15T03:06:47.564Z,84.63
2023-01-15T03:09:20.182Z,84.43
2023-01-15T03:11:58.317Z,84.68
2023-01-15T03:14:39.618Z,84.72
2023-01-15T03:17:19.473Z,85.20
2023-01-15T03:19:55.354Z,84.71
2023-01-15T03:22:32.131Z,84.30
2023-01-15T03:25:07.894Z,84.21
2023-01-15T03:27:44.877Z,84.36
2023-01-15T03:30:23.283Z,84.39
2023-01-15T03:32:57.213Z,83.97
2023-01-15T03:35:49.815Z,84.44
2023-01-15T03:38:37.116Z,84.46
2023-01-15T03:41:20.224Z,84.61
2023-01-15T03:44:05.574Z,84.42
2023-01-15T03:46:57.481Z,84.59
2023-01-15T03:49:44.182Z,84.52
2023-01-15T03:52:35.017Z,84.41
2023-01-15T03:55:15.371Z,84.70
2023-01-15T03:57:56.580Z,84.45
2023-01-15T04:00:31.185Z,84.45
2023-01-15T04:03:08.170Z,84.02
2023-01-15T04:05:41.011Z,84.40
2023-01-15T04:08:12.772Z,84.54
2023-01-15T04:10:55.932Z,84.56
2023-01-15T04:13:31.373Z,84.63
2023-01-15T04:16:02.614Z,84.46
2023-01-15T04:18:36.603Z,84.93
2023-01-15T04:21:07.441Z,84.88
2023-01-15T04:23:38.358Z,84.55
2023-01-15T04:26:09.165Z,84.79
2023-01-15T04:28:39.572Z,84.93
2023-01-15T04:31:10.454Z,84.83
2023-01-15T04:33:43.979Z,84.72
2023-01-15T04:36:14.743Z,84.39
2023-01-15T04:38:45.232Z,84.67
2023-01-15T04:41:27.964Z,84.58
2023-01-15T04:44:19.557Z,84.37
2023-01-15T04:46:50.649Z,84.54
2023-01-15T04:49:23.301Z,84.56
2023-01-15T04:51:53.660Z,84.80
2023-01-15T04:54:25.069Z,85.00
2023-01-15T04:56:57.382Z,84.85
2023-01-15T04:59:30.502Z,84.89
2023-01-15T05:02:06.330Z,85.22
2023-01-15T05:04:40.004Z,84.71
2023-01-15T05:07:10.349Z,85.08
2023-01-15T05:09:41.026Z,85.38
2023-01-15T05:12:12.037Z,85.77
2023-01-15T05:14:42.154Z,86.10
2023-01-15T05:17:12.507Z,86.34
2023-01-15T05:19:45.447Z,85.94
2023-01-15T05:22:15.906Z,86.19
2023-01-15T05:24:46.274Z,86.36
2023-01-15T05:27:16.752Z,86.34
2023-01-15T05:29:48.059Z,86.36
2023-01-15T05:32:18.485Z,86.51
2023-01-15T05:34:51.562Z,87.13
2023-01-15T05:37:21.912Z,88.34
2023-01-15T05:39:52.327Z,88.93
2023-01-15T05:42:22.679Z,89.23
2023-01-15T05:44:53.157Z,88.98
2023-01-15T05:47:23.852Z,89.08
2023-01-15T05:49:56.875Z,89.11
2023-01-15T05:52:27.296Z,89.59
2023-01-15T05:54:57.700Z,89.77
2023-01-15T05:57:28.136Z,89.95
2023-01-15T05:59:58.567Z,91.51
2023-01-15T06:02:28.949Z,96.28
2023-01-15T06:05:01.917Z,97.94
2023-01-15T06:07:32.326Z,100.00
2023-01-15T06:10:02.738Z,99.73
2023-01-15T06:12:33.158Z,100.00
2023-01-15T06:15:03.588Z,100.00
2023-01-15T06:17:33.949Z,100.00
2023-01-15T06:20:09.444Z,100.00
2023-01-15T06:22:39.933Z,100.00
2023-01-15T06:25:11.047Z,100.00
2023-01-15T06:27:44.562Z,100.00
2023-01-15T06:30:16.053Z,100.00
2023-01-15T06:32:46.409Z,100.00
2023-01-15T06:35:19.391Z,100.00
2023-01-15T06:37:49.689Z,100.00
2023-01-15T06:40:21.729Z,100.00
2023-01-15T06:43:04.475Z,100.00
2023-01-15T06:45:53.506Z,100.00
2023-01-15T06:48:23.911Z,100.00
2023-01-15T06:50:57.098Z,100.00
2023-01-15T06:53:27.398Z,100.00
2023-01-15T06:55:57.737Z,100.00
2023-01-15T06:58:28.089Z,100.00
2023-01-15T07:00:58.534Z,100.00
2023-01-15T07:03:28.989Z,100.00
2023-01-15T07:06:01.933Z,100.00
2023-01-15T07:08:32.204Z,100.00
2023-01-15T07:11:07.091Z,100.00
2023-01-15T07:13:37.761Z,100.00
2023-01-15T07:16:27.038Z,100.00
2023-01-15T07:18:58.653Z,100.00
2023-01-15T07:21:31.898Z,100.00
2023-01-15T07:24:03.208Z,100.00
2023-01-15T07:26:33.556Z,100.00
2023-01-15T07:29:03.846Z,100.00
2023-01-15T07:31:34.181Z,100.00
2023-01-15T07:34:04.524Z,100.00
2023-01-15T07:36:37.471Z,99.85
2023-01-15T07:39:08.460Z,97.66
2023-01-15T07:41:51.336Z,98.74
2023-01-15T07:44:34.144Z,98.52
2023-01-15T07:47:17.485Z,97.73
2023-01-15T07:49:48.819Z,97.74
2023-01-15T07:52:23.926Z,97.81
2023-01-15T07:54:54.354Z,98.78
2023-01-15T07:57:25.611Z,98.86
2023-01-15T07:59:55.907Z,99.18
2023-01-15T08:02:26.370Z,99.70
2023-01-15T08:04:56.770Z,99.24
2023-01-15T08:07:29.856Z,99.52
2023-01-15T08:10:00.182Z,98.94
2023-01-15T08:12:48.682Z,99.42
2023-01-15T08:15:19.354Z,99.72
2023-01-15T08:17:51.600Z,98.63
2023-01-15T08:20:24.887Z,98.92
2023-01-15T08:22:57.772Z,99.33
2023-01-15T08:25:28.954Z,97.99
2023-01-15T08:28:03.032Z,98.41
2023-01-15T08:30:33.722Z,99.33
2023-01-15T08:33:05.329Z,99.17
2023-01-15T08:35:35.753Z,98.38
2023-01-15T08:38:12.574Z,97.92
2023-01-15T08:40:58.091Z,97.53
2023-01-15T08:43:28.538Z,97.26
2023-01-15T08:46:00.957Z,97.55
2023-01-15T08:48:33.705Z,97.41
2023-01-15T08:51:07.921Z,97.60
2023-01-15T08:53:41.919Z,98.04
2023-01-15T08:56:16.681Z,97.74
2023-01-15T08:58:48.875Z,97.80
2023-01-15T09:01:19.367Z,97.37
2023-01-15T09:03:49.861Z,96.78
2023-01-15T09:06:20.212Z,100.00
2023-01-15T09:08:53.308Z,100.00
2023-01-15T09:11:23.919Z,100.00
2023-01-15T09:13:54.562Z,100.00
2023-01-15T09:16:26.835Z,100.00
2023-01-15T09:18:57.370Z,98.23
2023-01-15T09:21:27.865Z,99.86
2023-01-15T09:24:01.204Z,99.77
2023-01-15T09:26:35.265Z,98.10
2023-01-15T09:29:08.933Z,100.00
2023-01-15T09:31:39.280Z,98.58
2023-01-15T09:34:10.910Z,98.21
2023-01-15T09:36:41.565Z,98.52
2023-01-15T09:39:14.765Z,99.53
2023-01-15T09:42:16.126Z,100.00
2023-01-15T09:45:10.016Z,100.00
2023-01-15T09:47:44.993Z,100.00
2023-01-15T09:50:28.399Z,100.00
2023-01-15T09:53:35.335Z,100.00
2023-01-15T09:56:09.173Z,100.00
2023-01-15T09:58:42.444Z,99.99
2023-01-15T10:01:19.025Z,100.00
2023-01-15T10:03:56.080Z,99.83
2023-01-15T10:06:30.332Z,100.00
2023-01-15T10:09:09.059Z,99.36
2023-01-15T10:11:58.805Z,97.97
2023-01-15T10:14:40.579Z,98.32
2023-01-15T10:17:28.977Z,95.96
2023-01-15T10:20:00.989Z,94.25
2023-01-15T10:22:59.992Z,93.59
2023-01-15T10:25:40.142Z,90.25
2023-01-15T10:28:22.661Z,88.93
2023-01-15T10:30:57.939Z,90.50
2023-01-15T10:33:57.229Z,90.02
2023-01-15T10:36:36.671Z,89.50
2023-01-15T10:39:21.245Z,89.90
2023-01-15T10:42:11.590Z,89.26
2023-01-15T10:44:58.172Z,88.71
2023-01-15T10:47:36.842Z,89.97
2023-01-15T10:50:18.698Z,88.86
2023-01-15T10:52:53.872Z,86.92
2023-01-15T10:55:31.521Z,86.35
2023-01-15T10:58:10.979Z,86.52
2023-01-15T11:00:45.588Z,86.94
2023-01-15T11:03:19.868Z,86.14
2023-01-15T11:05:50.719Z,87.02
2023-01-15T11:11:41.173Z,87.15
2023-01-15T11:14:38.904Z,88.06
2023-01-15T11:17:30.209Z,86.70
2023-01-15T11:20:00.408Z,88.56
2023-01-15T11:22:31.097Z,90.35
2023-01-15T11:25:04.265Z,88.30
2023-01-15T11:27:37.680Z,86.75
2023-01-15T11:30:11.043Z,85.92
2023-01-15T11:32:43.994Z,84.69
2023-01-15T11:35:24.046Z,83.90
2023-01-15T11:38:05.239Z,83.22
2023-01-15T11:40:35.597Z,84.33
2023-01-15T11:43:18.361Z,84.13
2023-01-15T11:46:06.552Z,82.57
2023-01-15T11:49:03.323Z,82.10
2023-01-15T11:51:41.604Z,82.28
2023-01-15T11:54:16.605Z,81.81
2023-01-15T11:56:49.840Z,81.09
2023-01-15T11:59:22.498Z,81.22
2023-01-15T12:02:00.847Z,81.01
2023-01-15T12:04:40.665Z,80.31
2023-01-15T12:07:18.527Z,78.76
2023-01-15T12:10:41.473Z,76.46
2023-01-15T12:13:25.882Z,73.13
2023-01-15T12:16:10.781Z,73.24
2023-01-15T12:18:58.975Z,73.94
2023-01-15T12:22:11.688Z,72.25
2023-01-15T12:25:23.783Z,73.21
2023-01-15T12:28:01.828Z,72.04
2023-01-15T12:30:43.760Z,71.53
2023-01-15T12:33:24.101Z,71.67
2023-01-15T12:36:00.489Z,71.08
2023-01-15T12:38:49.429Z,69.98
2023-01-15T12:41:26.379Z,69.96
2023-01-15T12:44:14.102Z,70.09
2023-01-15T12:46:47.415Z,71.77
2023-01-15T12:49:34.438Z,72.31
2023-01-15T12:52:11.195Z,73.32
2023-01-15T12:54:52.666Z,72.70
2023-01-15T12:57:34.927Z,74.21
2023-01-15T13:00:15.474Z,75.12
2023-01-15T13:03:06.712Z,76.04
2023-01-15T13:05:43.203Z,76.79
2023-01-15T13:08:20.890Z,74.67
2023-01-15T13:10:56.025Z,75.31
2023-01-15T13:13:28.997Z,74.66
2023-01-15T13:16:15.950Z,75.04
2023-01-15T13:19:00.575Z,74.15
2023-01-15T13:21:34.736Z,73.99
2023-01-15T13:24:39.157Z,73.97
2023-01-15T13:27:43.352Z,73.95
2023-01-15T13:30:36.921Z,74.16
2023-01-15T13:33:22.173Z,74.85
2023-01-15T13:35:57.812Z,76.20
2023-01-15T13:38:31.306Z,77.59
2023-01-15T13:41:01.773Z,78.92
2023-01-15T13:43:39.646Z,78.62
2023-01-15T13:46:15.252Z,77.43
2023-01-15T13:48:49.376Z,78.09
2023-01-15T13:51:32.725Z,77.29
2023-01-15T13:54:04.788Z,77.09
2023-01-15T13:56:40.043Z,77.25
2023-01-15T13:59:43.251Z,77.53
2023-01-15T14:02:41.909Z,77.23
2023-01-15T14:05:33.614Z,76.81
2023-01-15T14:08:06.037Z,77.34
2023-01-15T14:10:41.252Z,76.32
2023-01-15T14:14:05.806Z,75.35
2023-01-15T14:16:56.931Z,76.27
2023-01-15T14:20:02.057Z,75.63
2023-01-15T14:22:52.083Z,75.79
2023-01-15T14:25:32.844Z,76.04
2023-01-15T14:28:25.029Z,75.27
2023-01-15T14:31:26.551Z,74.37
2023-01-15T14:34:19.909Z,73.27
2023-01-15T14:37:02.610Z,73.11
2023-01-15T14:39:41.703Z,72.42
2023-01-15T14:42:30.872Z,71.76
2023-01-15T14:45:06.514Z,70.99
2023-01-15T14:47:46.371Z,70.42
2023-01-15T14:50:38.681Z,71.24
2023-01-15T14:53:28.272Z,70.54
2023-01-15T14:56:04.910Z,69.98
2023-01-15T14:58:49.106Z,70.54
2023-01-15T15:01:32.250Z,70.91
2023-01-15T15:04:23.352Z,71.22
2023-01-15T15:06:59.902Z,71.90
2023-01-15T15:09:39.701Z,71.89
2023-01-15T15:12:38.577Z,71.61
2023-01-15T15:15:15.472Z,71.66
2023-01-15T15:17:59.400Z,72.26
2023-01-15T15:20:47.856Z,72.77
2023-01-15T15:23:29.563Z,73.77
2023-01-15T15:26:01.842Z,74.04
2023-01-15T15:28:32.370Z,74.28
2023-01-15T15:31:04.211Z,74.50
2023-01-15T15:33:42.303Z,74.26
2023-01-15T15:36:13.107Z,74.86
2023-01-15T15:38:55.993Z,75.20
2023-01-15T15:41:41.933Z,75.38
2023-01-15T15:44:32.209Z,75.58
2023-01-15T15:47:14.931Z,76.26
2023-01-15T15:49:45.417Z,76.33
2023-01-15T15:52:25.964Z,77.14
2023-01-15T15:55:07.953Z,77.47
2023-01-15T15:57:38.693Z,77.43
2023-01-15T16:00:22.757Z,77.88
2023-01-15T16:02:53.387Z,78.45
2023-01-15T16:05:27.117Z,78.73
2023-01-15T16:07:58.712Z,78.75
2023-01-15T16:10:35.291Z,78.77
2023-01-15T16:13:10.907Z,78.15
2023-01-15T16:15:44.273Z,78.10
2023-01-15T16:18:26.385Z,77.93
2023-01-15T16:20:59.948Z,77.31
2023-01-15T16:23:33.298Z,77.87
2023-01-15T16:26:15.311Z,78.01
2023-01-15T16:28:50.710Z,77.07
2023-01-15T16:31:23.102Z,77.23
2023-01-15T16:33:58.704Z,77.43
2023-01-15T16:36:32.019Z,77.30
2023-01-15T16:39:02.742Z,77.00
2023-01-15T16:41:42.538Z,77.30
2023-01-15T16:44:29.959Z,77.65
2023-01-15T16:47:04.013Z,77.64
2023-01-15T16:49:36.480Z,77.55
2023-01-15T16:52:47.109Z,77.87
2023-01-15T16:55:47.906Z,77.71
2023-01-15T16:58:37.211Z,77.70
2023-01-15T17:01:35.690Z,77.05
2023-01-15T17:04:07.385Z,76.70
2023-01-15T17:06:37.738Z,76.30
2023-01-15T17:09:17.539Z,76.38
2023-01-15T17:11:53.818Z,76.70
2023-01-15T17:14:26.769Z,76.63
2023-01-15T17:17:28.339Z,76.11
2023-01-15T17:19:59.805Z,76.78
2023-01-15T17:22:33.239Z,77.48
2023-01-15T17:25:24.833Z,78.08
2023-01-15T17:27:57.110Z,78.18
2023-01-15T17:30:31.242Z,78.42
2023-01-15T17:33:02.151Z,78.99
2023-01-15T17:35:35.175Z,78.99
2023-01-15T17:38:06.844Z,78.81
2023-01-15T17:40:40.421Z,78.53
2023-01-15T17:43:12.328Z,78.45
2023-01-15T17:45:42.753Z,77.65
2023-01-15T17:48:13.644Z,77.44
2023-01-15T17:50:44.140Z,76.93
2023-01-15T17:53:14.516Z,76.34
2023-01-15T17:55:59.768Z,75.79
2023-01-15T17:58:42.563Z,75.71
2023-01-15T18:01:34.607Z,75.26
2023-01-15T18:04:18.402Z,75.14
2023-01-15T18:06:53.783Z,74.95
2023-01-15T18:09:26.275Z,74.58
2023-01-15T18:11:59.222Z,74.51
2023-01-15T18:14:29.582Z,74.28
2023-01-15T18:16:59.896Z,74.06
2023-01-15T18:19:30.278Z,73.95
2023-01-15T18:22:00.606Z,74.07
2023-01-15T18:24:30.927Z,73.70
2023-01-15T18:27:03.899Z,73.98
2023-01-15T18:29:38.631Z,73.83
2023-01-15T18:32:09.761Z,73.83
2023-01-15T18:34:40.338Z,73.47
2023-01-15T18:37:10.922Z,73.72
2023-01-15T18:39:41.633Z,73.64
2023-01-15T18:42:27.904Z,73.54
2023-01-15T18:45:10.592Z,73.66
2023-01-15T18:47:41.266Z,73.54
2023-01-15T18:50:13.924Z,73.46
2023-01-15T18:52:53.392Z,73.26
2023-01-15T18:55:26.178Z,73.74
2023-01-15T18:58:00.143Z,74.06
2023-01-15T19:00:30.647Z,74.23
2023-01-15T19:03:01.091Z,74.26
2023-01-15T19:05:31.416Z,74.63
2023-01-15T19:08:01.809Z,74.50
2023-01-15T19:10:32.389Z,74.70
2023-01-15T19:13:05.687Z,75.02
2023-01-15T19:15:48.477Z,75.28
2023-01-15T19:18:31.271Z,75.38
2023-01-15T19:21:01.599Z,75.19
2023-01-15T19:23:31.874Z,75.17
2023-01-15T19:26:02.373Z,74.91
2023-01-15T19:28:35.947Z,75.36
2023-01-15T19:31:23.535Z,75.25
2023-01-15T19:34:13.237Z,75.24
2023-01-15T19:36:47.338Z,74.82
2023-01-15T19:39:17.887Z,74.69
2023-01-15T19:42:00.619Z,74.60
2023-01-15T19:44:45.994Z,74.50
2023-01-15T19:47:30.248Z,74.61
2023-01-15T19:50:13.055Z,74.50
2023-01-15T19:52:43.348Z,74.54
2023-01-15T19:55:15.280Z,74.28
2023-01-15T19:57:48.835Z,74.71
2023-01-15T20:00:24.341Z,74.94
2023-01-15T20:02:54.898Z,75.13
2023-01-15T20:05:27.526Z,75.44
2023-01-15T20:07:58.095Z,75.64
2023-01-15T20:10:31.931Z,75.88
2023-01-15T20:13:23.426Z,75.99
2023-01-15T20:15:56.375Z,75.99
2023-01-15T20:18:26.697Z,75.98
2023-01-15T20:20:58.326Z,75.68
2023-01-15T20:23:28.998Z,75.73
2023-01-15T20:26:04.802Z,75.80
2023-01-15T20:28:36.063Z,75.91
2023-01-15T20:31:09.802Z,75.76
2023-01-15T20:33:40.151Z,75.90
2023-01-15T20:36:12.108Z,76.18
2023-01-15T20:38:42.397Z,76.54
2023-01-15T20:41:26.567Z,76.27
2023-01-15T20:44:09.439Z,76.42
2023-01-15T20:46:42.451Z,76.34
2023-01-15T20:49:25.451Z,76.66
2023-01-15T20:51:55.996Z,76.90
2023-01-15T20:54:28.291Z,76.31
2023-01-15T20:56:58.715Z,76.03
2023-01-15T20:59:29.186Z,76.17
2023-01-15T21:02:02.252Z,76.79
2023-01-15T21:04:32.940Z,77.02
2023-01-15T21:07:03.295Z,77.34
2023-01-15T21:09:33.691Z,77.12
2023-01-15T21:12:04.019Z,77.16
2023-01-15T21:14:34.532Z,77.37
2023-01-15T21:17:07.525Z,77.02
2023-01-15T21:19:37.934Z,77.12
2023-01-15T21:22:08.378Z,77.01
2023-01-15T21:24:38.834Z,76.70
2023-01-15T21:27:09.229Z,76.25
2023-01-15T21:29:39.643Z,76.29
2023-01-15T21:32:14.904Z,76.48
2023-01-15T21:34:45.656Z,76.54
2023-01-15T21:37:16.408Z,76.21
2023-01-15T21:39:46.900Z,75.93
2023-01-15T21:42:33.126Z,76.44
2023-01-15T21:45:04.852Z,76.21
2023-01-15T21:47:41.488Z,75.75
2023-01-15T21:50:13.455Z,75.46
2023-01-15T21:52:43.893Z,75.55
2023-01-15T21:55:14.297Z,75.58
2023-01-15T21:57:44.863Z,75.41
2023-01-15T22:00:17.242Z,75.35
2023-01-15T22:02:50.425Z,75.43
2023-01-15T22:05:20.867Z,75.53
2023-01-15T22:07:51.331Z,75.58
2023-01-15T22:10:21.885Z,75.12
2023-01-15T22:12:52.328Z,75.39
2023-01-15T22:15:22.738Z,75.48
2023-01-15T22:17:57.480Z,75.60
2023-01-15T22:20:27.949Z,75.79
2023-01-15T22:22:58.503Z,76.18
2023-01-15T22:25:28.903Z,75.86
2023-01-15T22:27:59.672Z,75.91
2023-01-15T22:30:30.228Z,75.76
2023-01-15T22:33:03.307Z,75.42
2023-01-15T22:35:33.598Z,75.14
2023-01-15T22:38:03.910Z,75.12
2023-01-15T22:40:34.537Z,74.80
2023-01-15T22:43:04.917Z,75.30
2023-01-15T22:45:35.317Z,75.51
2023-01-15T22:48:11.229Z,75.46
2023-01-15T22:50:41.618Z,75.01
2023-01-15T22:53:11.967Z,74.54
2023-01-15T22:55:42.289Z,74.46
2023-01-15T22:58:12.645Z,74.51
2023-01-15T23:00:43.029Z,74.41
2023-01-15T23:03:17.342Z,74.54
2023-01-15T23:05:47.668Z,74.39
2023-01-15T23:08:18.376Z,73.93
2023-01-15T23:10:51.227Z,75.20
2023-01-15T23:13:21.596Z,74.77
2023-01-15T23:16:00.572Z,74.95
2023-01-15T23:18:34.875Z,74.36
2023-01-15T23:21:10.405Z,73.77
2023-01-15T23:23:41.534Z,73.32
2023-01-15T23:26:15.915Z,73.50
2023-01-15T23:28:47.100Z,73.30
2023-01-15T23:31:17.293Z,73.20
2023-01-15T23:33:50.785Z,73.08
2023-01-15T23:36:21.292Z,73.26
2023-01-15T23:38:51.934Z,72.74
2023-01-15T23:41:45.611Z,72.45
2023-01-15T23:44:34.334Z,73.11
2023-01-15T23:47:04.835Z,73.27
2023-01-15T23:49:38.083Z,72.90
2023-01-15T23:52:09.016Z,72.49
2023-01-15T23:54:39.495Z,71.92
2023-01-15T23:57:13.069Z,72.33
2023-01-15T23:59:44.017Z,72.02
